sensor_id;sensor_type;location;lat;lon;timestamp;P1;durP1;ratioP1;P2;durP2;ratioP2
19495;SDS011;9888;48.606;9.630;2023-09-18T00:04:57;11.37;;;5.80;;
19495;SDS011;9888;48.606;9.630;2023-09-18T00:10:16;9.77;;;5.60;;
19495;SDS011;9888;48.606;9.630;2023-09-18T00:12:44;11.67;;;5.67;;
19495;SDS011;9888;48.606;9.630;2023-09-18T00:15:21;11.17;;;5.50;;
19495;SDS011;9888;48.606;9.630;2023-09-18T00:17:55;10.00;;;5.40;;
19495;SDS011;9888;48.606;9.630;2023-09-18T00:20:23;10.60;;;6.00;;
19495;SDS011;9888;48.606;9.630;2023-09-18T00:23:00;9.23;;;5.50;;
19495;SDS011;9888;48.606;9.630;2023-09-18T00:28:51;10.23;;;5.23;;
19495;SDS011;9888;48.606;9.630;2023-09-18T00:31:19;11.40;;;5.63;;
19495;SDS011;9888;48.606;9.630;2023-09-18T00:33:48;10.60;;;5.50;;
19495;SDS011;9888;48.606;9.630;2023-09-18T00:39:19;10.40;;;5.00;;
19495;SDS011;9888;48.606;9.630;2023-09-18T00:41:47;9.90;;;5.07;;
19495;SDS011;9888;48.606;9.630;2023-09-18T00:44:20;9.70;;;5.30;;
19495;SDS011;9888;48.606;9.630;2023-09-18T00:46:48;13.23;;;5.57;;
19495;SDS011;9888;48.606;9.630;2023-09-18T00:49:18;14.17;;;5.50;;
19495;SDS011;9888;48.606;9.630;2023-09-18T00:51:46;8.60;;;4.90;;
19495;SDS011;9888;48.606;9.630;2023-09-18T00:54:14;9.47;;;5.17;;
19495;SDS011;9888;48.606;9.630;2023-09-18T00:56:47;9.00;;;4.97;;
19495;SDS011;9888;48.606;9.630;2023-09-18T00:59:24;9.60;;;5.40;;
19495;SDS011;9888;48.606;9.630;2023-09-18T01:05:26;9.50;;;5.07;;
19495;SDS011;9888;48.606;9.630;2023-09-18T01:08:02;13.57;;;5.00;;
19495;SDS011;9888;48.606;9.630;2023-09-18T01:10:36;9.97;;;4.77;;
19495;SDS011;9888;48.606;9.630;2023-09-18T01:13:23;8.23;;;5.13;;
19495;SDS011;9888;48.606;9.630;2023-09-18T01:16:02;8.77;;;5.10;;
19495;SDS011;9888;48.606;9.630;2023-09-18T01:18:50;13.13;;;5.00;;
19495;SDS011;9888;48.606;9.630;2023-09-18T01:21:22;9.63;;;5.10;;
19495;SDS011;9888;48.606;9.630;2023-09-18T01:23:51;9.40;;;5.30;;
19495;SDS011;9888;48.606;9.630;2023-09-18T01:26:24;9.10;;;4.77;;
19495;SDS011;9888;48.606;9.630;2023-09-18T01:32:27;9.33;;;5.30;;
19495;SDS011;9888;48.606;9.630;2023-09-18T01:35:00;11.80;;;4.60;;
19495;SDS011;9888;48.606;9.630;2023-09-18T01:37:38;9.83;;;4.73;;
19495;SDS011;9888;48.606;9.630;2023-09-18T01:40:09;10.87;;;4.37;;
19495;SDS011;9888;48.606;9.630;2023-09-18T01:42:40;8.40;;;4.13;;
19495;SDS011;9888;48.606;9.630;2023-09-18T01:45:13;9.50;;;4.33;;
19495;SDS011;9888;48.606;9.630;2023-09-18T01:51:04;10.20;;;4.43;;
19495;SDS011;9888;48.606;9.630;2023-09-18T01:53:34;14.23;;;4.17;;
19495;SDS011;9888;48.606;9.630;2023-09-18T01:56:02;9.20;;;4.67;;
19495;SDS011;9888;48.606;9.630;2023-09-18T01:58:30;9.93;;;4.20;;
19495;SDS011;9888;48.606;9.630;2023-09-18T02:01:00;12.23;;;3.70;;
19495;SDS011;9888;48.606;9.630;2023-09-18T02:03:34;10.33;;;4.03;;
19495;SDS011;9888;48.606;9.630;2023-09-18T02:06:02;8.53;;;3.43;;
19495;SDS011;9888;48.606;9.630;2023-09-18T02:08:32;12.60;;;4.03;;
19495;SDS011;9888;48.606;9.630;2023-09-18T02:11:01;10.80;;;4.23;;
19495;SDS011;9888;48.606;9.630;2023-09-18T02:13:42;12.50;;;3.60;;
19495;SDS011;9888;48.606;9.630;2023-09-18T02:16:13;9.40;;;4.23;;
19495;SDS011;9888;48.606;9.630;2023-09-18T02:18:40;8.53;;;3.70;;
19495;SDS011;9888;48.606;9.630;2023-09-18T02:27:54;12.60;;;4.40;;
19495;SDS011;9888;48.606;9.630;2023-09-18T02:30:33;11.30;;;3.00;;
19495;SDS011;9888;48.606;9.630;2023-09-18T02:36:27;10.93;;;3.90;;
19495;SDS011;9888;48.606;9.630;2023-09-18T02:38:54;8.77;;;3.47;;
19495;SDS011;9888;48.606;9.630;2023-09-18T02:53:58;15.57;;;3.80;;
19495;SDS011;9888;48.606;9.630;2023-09-18T02:56:47;7.73;;;3.23;;
19495;SDS011;9888;48.606;9.630;2023-09-18T02:59:15;9.83;;;3.63;;
19495;SDS011;9888;48.606;9.630;2023-09-18T03:01:43;9.63;;;3.40;;
19495;SDS011;9888;48.606;9.630;2023-09-18T03:04:11;15.47;;;3.90;;
19495;SDS011;9888;48.606;9.630;2023-09-18T03:06:39;9.83;;;3.90;;
19495;SDS011;9888;48.606;9.630;2023-09-18T03:09:15;9.60;;;3.70;;
19495;SDS011;9888;48.606;9.630;2023-09-18T03:11:42;11.60;;;3.90;;
19495;SDS011;9888;48.606;9.630;2023-09-18T03:14:14;8.90;;;3.70;;
19495;SDS011;9888;48.606;9.630;2023-09-18T03:16:42;13.63;;;3.97;;
19495;SDS011;9888;48.606;9.630;2023-09-18T03:19:10;10.50;;;3.93;;
19495;SDS011;9888;48.606;9.630;2023-09-18T03:21:37;9.00;;;3.70;;
19495;SDS011;9888;48.606;9.630;2023-09-18T03:24:04;9.40;;;3.93;;
19495;SDS011;9888;48.606;9.630;2023-09-18T03:26:32;18.60;;;4.67;;
19495;SDS011;9888;48.606;9.630;2023-09-18T03:29:00;11.43;;;3.93;;
19495;SDS011;9888;48.606;9.630;2023-09-18T03:31:27;11.17;;;4.13;;
19495;SDS011;9888;48.606;9.630;2023-09-18T03:33:56;10.73;;;4.03;;
19495;SDS011;9888;48.606;9.630;2023-09-18T03:36:23;8.70;;;3.70;;
19495;SDS011;9888;48.606;9.630;2023-09-18T03:38:51;9.20;;;3.93;;
19495;SDS011;9888;48.606;9.630;2023-09-18T03:41:17;15.33;;;4.93;;
19495;SDS011;9888;48.606;9.630;2023-09-18T03:43:45;9.77;;;4.20;;
19495;SDS011;9888;48.606;9.630;2023-09-18T03:46:13;15.17;;;4.40;;
19495;SDS011;9888;48.606;9.630;2023-09-18T03:48:41;11.20;;;3.80;;
19495;SDS011;9888;48.606;9.630;2023-09-18T03:51:13;9.80;;;3.70;;
19495;SDS011;9888;48.606;9.630;2023-09-18T03:53:43;13.10;;;4.00;;
19495;SDS011;9888;48.606;9.630;2023-09-18T03:56:11;9.83;;;3.57;;
19495;SDS011;9888;48.606;9.630;2023-09-18T03:58:38;10.80;;;4.13;;
19495;SDS011;9888;48.606;9.630;2023-09-18T04:01:05;8.87;;;3.80;;
19495;SDS011;9888;48.606;9.630;2023-09-18T04:03:33;13.23;;;3.83;;
19495;SDS011;9888;48.606;9.630;2023-09-18T04:06:04;9.33;;;3.87;;
19495;SDS011;9888;48.606;9.630;2023-09-18T04:08:33;9.73;;;3.73;;
19495;SDS011;9888;48.606;9.630;2023-09-18T04:11:02;12.20;;;4.27;;
19495;SDS011;9888;48.606;9.630;2023-09-18T04:13:36;12.67;;;4.07;;
19495;SDS011;9888;48.606;9.630;2023-09-18T04:16:08;11.03;;;4.20;;
19495;SDS011;9888;48.606;9.630;2023-09-18T04:18:40;12.37;;;3.90;;
19495;SDS011;9888;48.606;9.630;2023-09-18T04:21:10;18.50;;;4.90;;
19495;SDS011;9888;48.606;9.630;2023-09-18T04:23:39;12.23;;;4.07;;
19495;SDS011;9888;48.606;9.630;2023-09-18T04:26:09;18.13;;;4.87;;
19495;SDS011;9888;48.606;9.630;2023-09-18T04:28:41;22.03;;;5.00;;
19495;SDS011;9888;48.606;9.630;2023-09-18T04:31:08;24.53;;;5.27;;
19495;SDS011;9888;48.606;9.630;2023-09-18T04:33:36;20.20;;;9.70;;
19495;SDS011;9888;48.606;9.630;2023-09-18T04:36:05;14.50;;;3.37;;
19495;SDS011;9888;48.606;9.630;2023-09-18T04:38:34;12.73;;;3.00;;
19495;SDS011;9888;48.606;9.630;2023-09-18T04:41:04;12.83;;;3.33;;
19495;SDS011;9888;48.606;9.630;2023-09-18T04:43:44;12.33;;;3.33;;
19495;SDS011;9888;48.606;9.630;2023-09-18T04:46:11;16.93;;;3.80;;
19495;SDS011;9888;48.606;9.630;2023-09-18T04:48:40;13.73;;;4.60;;
19495;SDS011;9888;48.606;9.630;2023-09-18T04:51:28;11.17;;;3.97;;
19495;SDS011;9888;48.606;9.630;2023-09-18T04:53:58;13.10;;;3.60;;
19495;SDS011;9888;48.606;9.630;2023-09-18T04:56:25;29.43;;;12.10;;
19495;SDS011;9888;48.606;9.630;2023-09-18T04:58:53;11.93;;;3.40;;
19495;SDS011;9888;48.606;9.630;2023-09-18T05:01:20;10.90;;;3.20;;
19495;SDS011;9888;48.606;9.630;2023-09-18T05:03:50;14.37;;;3.77;;
19495;SDS011;9888;48.606;9.630;2023-09-18T05:06:35;13.33;;;4.30;;
19495;SDS011;9888;48.606;9.630;2023-09-18T05:09:07;21.73;;;10.60;;
19495;SDS011;9888;48.606;9.630;2023-09-18T05:14:56;12.60;;;3.33;;
19495;SDS011;9888;48.606;9.630;2023-09-18T05:20:46;13.83;;;3.40;;
19495;SDS011;9888;48.606;9.630;2023-09-18T05:23:17;8.97;;;2.97;;
19495;SDS011;9888;48.606;9.630;2023-09-18T05:25:54;10.13;;;2.70;;
19495;SDS011;9888;48.606;9.630;2023-09-18T05:28:23;14.97;;;2.80;;
19495;SDS011;9888;48.606;9.630;2023-09-18T05:30:51;11.60;;;2.83;;
19495;SDS011;9888;48.606;9.630;2023-09-18T05:33:19;9.90;;;2.67;;
19495;SDS011;9888;48.606;9.630;2023-09-18T05:35:46;8.83;;;2.20;;
19495;SDS011;9888;48.606;9.630;2023-09-18T05:38:14;11.53;;;3.57;;
19495;SDS011;9888;48.606;9.630;2023-09-18T05:40:43;14.10;;;3.10;;
19495;SDS011;9888;48.606;9.630;2023-09-18T05:43:10;13.07;;;3.00;;
19495;SDS011;9888;48.606;9.630;2023-09-18T05:45:38;28.93;;;7.80;;
19495;SDS011;9888;48.606;9.630;2023-09-18T05:48:05;20.03;;;5.73;;
19495;SDS011;9888;48.606;9.630;2023-09-18T05:50:33;24.87;;;5.00;;
19495;SDS011;9888;48.606;9.630;2023-09-18T05:53:05;17.73;;;4.47;;
19495;SDS011;9888;48.606;9.630;2023-09-18T05:55:35;18.93;;;5.10;;
19495;SDS011;9888;48.606;9.630;2023-09-18T05:58:03;25.17;;;4.40;;
19495;SDS011;9888;48.606;9.630;2023-09-18T06:00:52;15.70;;;3.93;;
19495;SDS011;9888;48.606;9.630;2023-09-18T06:03:21;16.20;;;4.00;;
19495;SDS011;9888;48.606;9.630;2023-09-18T06:05:51;18.23;;;4.50;;
19495;SDS011;9888;48.606;9.630;2023-09-18T06:08:19;13.93;;;3.50;;
19495;SDS011;9888;48.606;9.630;2023-09-18T06:10:56;14.20;;;3.20;;
19495;SDS011;9888;48.606;9.630;2023-09-18T06:13:25;13.63;;;3.47;;
19495;SDS011;9888;48.606;9.630;2023-09-18T06:18:59;15.10;;;5.10;;
19495;SDS011;9888;48.606;9.630;2023-09-18T06:21:28;9.20;;;2.00;;
19495;SDS011;9888;48.606;9.630;2023-09-18T06:23:55;10.37;;;3.70;;
19495;SDS011;9888;48.606;9.630;2023-09-18T06:26:30;30.87;;;12.53;;
19495;SDS011;9888;48.606;9.630;2023-09-18T06:28:59;71.13;;;27.30;;
19495;SDS011;9888;48.606;9.630;2023-09-18T06:31:30;20.30;;;11.30;;
19495;SDS011;9888;48.606;9.630;2023-09-18T06:34:00;12.97;;;5.37;;
19495;SDS011;9888;48.606;9.630;2023-09-18T06:36:29;11.00;;;2.93;;
19495;SDS011;9888;48.606;9.630;2023-09-18T06:38:58;8.23;;;1.80;;
19495;SDS011;9888;48.606;9.630;2023-09-18T06:41:27;9.50;;;2.03;;
19495;SDS011;9888;48.606;9.630;2023-09-18T06:43:56;11.87;;;2.20;;
19495;SDS011;9888;48.606;9.630;2023-09-18T06:46:28;11.33;;;2.63;;
19495;SDS011;9888;48.606;9.630;2023-09-18T06:48:57;8.90;;;1.97;;
19495;SDS011;9888;48.606;9.630;2023-09-18T06:51:27;10.87;;;2.77;;
19495;SDS011;9888;48.606;9.630;2023-09-18T06:54:00;11.40;;;2.37;;
19495;SDS011;9888;48.606;9.630;2023-09-18T06:56:28;8.97;;;2.13;;
19495;SDS011;9888;48.606;9.630;2023-09-18T06:58:57;12.50;;;4.10;;
19495;SDS011;9888;48.606;9.630;2023-09-18T07:01:26;9.37;;;2.30;;
19495;SDS011;9888;48.606;9.630;2023-09-18T07:03:53;17.57;;;2.67;;
19495;SDS011;9888;48.606;9.630;2023-09-18T07:06:22;14.80;;;3.40;;
19495;SDS011;9888;48.606;9.630;2023-09-18T07:08:50;13.13;;;2.20;;
19495;SDS011;9888;48.606;9.630;2023-09-18T07:11:19;15.57;;;2.87;;
19495;SDS011;9888;48.606;9.630;2023-09-18T07:13:46;16.50;;;2.03;;
19495;SDS011;9888;48.606;9.630;2023-09-18T07:16:14;10.10;;;2.10;;
19495;SDS011;9888;48.606;9.630;2023-09-18T07:18:42;11.40;;;2.10;;
19495;SDS011;9888;48.606;9.630;2023-09-18T07:21:09;10.87;;;2.00;;
19495;SDS011;9888;48.606;9.630;2023-09-18T07:23:39;10.40;;;2.03;;
19495;SDS011;9888;48.606;9.630;2023-09-18T07:26:07;9.80;;;2.23;;
19495;SDS011;9888;48.606;9.630;2023-09-18T07:28:35;9.30;;;1.70;;
19495;SDS011;9888;48.606;9.630;2023-09-18T07:31:07;7.30;;;1.80;;
19495;SDS011;9888;48.606;9.630;2023-09-18T07:33:37;9.73;;;1.70;;
19495;SDS011;9888;48.606;9.630;2023-09-18T07:36:06;8.13;;;1.70;;
19495;SDS011;9888;48.606;9.630;2023-09-18T07:38:35;12.20;;;2.30;;
19495;SDS011;9888;48.606;9.630;2023-09-18T07:41:09;10.13;;;2.07;;
19495;SDS011;9888;48.606;9.630;2023-09-18T07:43:38;7.93;;;1.90;;
19495;SDS011;9888;48.606;9.630;2023-09-18T07:46:07;7.77;;;2.07;;
19495;SDS011;9888;48.606;9.630;2023-09-18T07:48:34;9.33;;;1.90;;
19495;SDS011;9888;48.606;9.630;2023-09-18T07:51:03;8.07;;;1.80;;
19495;SDS011;9888;48.606;9.630;2023-09-18T07:53:30;8.30;;;1.70;;
19495;SDS011;9888;48.606;9.630;2023-09-18T07:55:58;9.60;;;2.37;;
19495;SDS011;9888;48.606;9.630;2023-09-18T07:58:27;9.30;;;2.13;;
19495;SDS011;9888;48.606;9.630;2023-09-18T08:00:58;9.57;;;2.03;;
19495;SDS011;9888;48.606;9.630;2023-09-18T08:03:48;6.97;;;1.63;;
19495;SDS011;9888;48.606;9.630;2023-09-18T08:06:16;9.73;;;1.73;;
19495;SDS011;9888;48.606;9.630;2023-09-18T08:08:45;9.23;;;1.97;;
19495;SDS011;9888;48.606;9.630;2023-09-18T08:11:15;9.20;;;2.00;;
19495;SDS011;9888;48.606;9.630;2023-09-18T08:13:44;10.73;;;2.20;;
19495;SDS011;9888;48.606;9.630;2023-09-18T08:16:14;35.53;;;3.20;;
19495;SDS011;9888;48.606;9.630;2023-09-18T08:18:46;13.30;;;3.23;;
19495;SDS011;9888;48.606;9.630;2023-09-18T08:21:14;9.47;;;1.90;;
19495;SDS011;9888;48.606;9.630;2023-09-18T08:23:42;8.43;;;1.90;;
19495;SDS011;9888;48.606;9.630;2023-09-18T08:26:11;10.73;;;2.57;;
19495;SDS011;9888;48.606;9.630;2023-09-18T22:11:32;4.57;;;1.07;;
19495;SDS011;9888;48.606;9.630;2023-09-18T22:14:01;5.63;;;1.00;;
19495;SDS011;9888;48.606;9.630;2023-09-18T22:16:31;6.40;;;1.00;;
19495;SDS011;9888;48.606;9.630;2023-09-18T22:19:00;4.67;;;1.00;;
19495;SDS011;9888;48.606;9.630;2023-09-18T22:21:28;5.97;;;1.10;;
19495;SDS011;9888;48.606;9.630;2023-09-18T22:23:57;4.90;;;1.00;;
19495;SDS011;9888;48.606;9.630;2023-09-18T22:26:32;5.00;;;1.10;;
19495;SDS011;9888;48.606;9.630;2023-09-18T22:29:00;5.77;;;1.10;;
19495;SDS011;9888;48.606;9.630;2023-09-18T22:31:30;5.30;;;1.30;;
19495;SDS011;9888;48.606;9.630;2023-09-18T22:33:59;5.40;;;1.20;;
19495;SDS011;9888;48.606;9.630;2023-09-18T22:36:28;5.70;;;1.07;;
19495;SDS011;9888;48.606;9.630;2023-09-18T22:59:19;5.60;;;1.30;;
19495;SDS011;9888;48.606;9.630;2023-09-18T23:02:03;6.13;;;1.37;;
19495;SDS011;9888;48.606;9.630;2023-09-18T23:07:35;4.93;;;1.33;;
19495;SDS011;9888;48.606;9.630;2023-09-18T23:10:07;5.63;;;1.40;;
19495;SDS011;9888;48.606;9.630;2023-09-18T23:12:36;6.50;;;1.30;;
19495;SDS011;9888;48.606;9.630;2023-09-18T23:18:27;5.90;;;1.30;;
19495;SDS011;9888;48.606;9.630;2023-09-18T23:20:57;5.23;;;1.30;;
19495;SDS011;9888;48.606;9.630;2023-09-18T23:23:26;6.00;;;1.30;;
19495;SDS011;9888;48.606;9.630;2023-09-18T23:25:54;5.50;;;1.60;;
19495;SDS011;9888;48.606;9.630;2023-09-18T23:28:24;5.73;;;1.40;;
19495;SDS011;9888;48.606;9.630;2023-09-18T23:30:55;5.67;;;1.57;;
19495;SDS011;9888;48.606;9.630;2023-09-18T23:33:24;5.60;;;1.30;;
19495;SDS011;9888;48.606;9.630;2023-09-18T23:35:53;5.53;;;1.10;;
19495;SDS011;9888;48.606;9.630;2023-09-18T23:38:22;6.03;;;1.30;;
19495;SDS011;9888;48.606;9.630;2023-09-18T23:40:52;6.30;;;1.20;;
19495;SDS011;9888;48.606;9.630;2023-09-18T23:43:41;6.00;;;1.30;;
19495;SDS011;9888;48.606;9.630;2023-09-18T23:46:16;5.10;;;1.20;;
19495;SDS011;9888;48.606;9.630;2023-09-18T23:48:46;6.03;;;1.50;;
19495;SDS011;9888;48.606;9.630;2023-09-18T23:51:14;5.40;;;1.30;;
19495;SDS011;9888;48.606;9.630;2023-09-18T23:53:43;5.07;;;1.10;;
19495;SDS011;9888;48.606;9.630;2023-09-18T23:56:11;6.07;;;1.30;;
